sensor_id;sensor_type;location;lat;lon;timestamp;temperature;humidity
4699;DHT22;33708;49.466;11.176;2023-08-01T00:01:50;17.50;99.90
4699;DHT22;33708;49.466;11.176;2023-08-01T00:04:16;17.40;99.90
4699;DHT22;33708;49.466;11.176;2023-08-01T00:06:41;17.30;99.90
4699;DHT22;33708;49.466;11.176;2023-08-01T00:09:07;17.30;99.90
4699;DHT22;33708;49.466;11.176;2023-08-01T00:11:33;17.10;99.90
4699;DHT22;33708;49.466;11.176;2023-08-01T00:13:58;17.00;99.90
4699;DHT22;33708;49.466;11.176;2023-08-01T00:16:24;17.20;99.90
4699;DHT22;33708;49.466;11.176;2023-08-01T00:18:49;17.20;99.90
4699;DHT22;33708;49.466;11.176;2023-08-01T00:21:15;17.30;99.90
4699;DHT22;33708;49.466;11.176;2023-08-01T00:23:41;17.30;99.90
4699;DHT22;33708;49.466;11.176;2023-08-01T00:26:06;17.30;99.90
4699;DHT22;33708;49.466;11.176;2023-08-01T00:28:32;17.40;99.90
4699;DHT22;33708;49.466;11.176;2023-08-01T00:31:05;17.50;99.90
4699;DHT22;33708;49.466;11.176;2023-08-01T00:33:31;17.60;99.90
4699;DHT22;33708;49.466;11.176;2023-08-01T00:35:56;17.50;99.90
4699;DHT22;33708;49.466;11.176;2023-08-01T00:38:22;17.50;99.90
4699;DHT22;33708;49.466;11.176;2023-08-01T00:40:47;17.60;99.90
4699;DHT22;33708;49.466;11.176;2023-08-01T00:43:13;17.60;99.90
4699;DHT22;33708;49.466;11.176;2023-08-01T00:45:39;17.60;99.90
4699;DHT22;33708;49.466;11.176;2023-08-01T00:48:05;17.60;99.90
4699;DHT22;33708;49.466;11.176;2023-08-01T00:50:31;17.60;99.90
4699;DHT22;33708;49.466;11.176;2023-08-01T00:52:57;17.60;99.90
4699;DHT22;33708;49.466;11.176;2023-08-01T00:55:22;17.50;99.90
4699;DHT22;33708;49.466;11.176;2023-08-01T00:57:48;17.50;99.90
4699;DHT22;33708;49.466;11.176;2023-08-01T01:00:14;17.50;99.90
4699;DHT22;33708;49.466;11.176;2023-08-01T01:02:40;17.50;99.90
4699;DHT22;33708;49.466;11.176;2023-08-01T01:05:06;17.60;99.90
4699;DHT22;33708;49.466;11.176;2023-08-01T01:07:31;17.60;99.90
4699;DHT22;33708;49.466;11.176;2023-08-01T01:09:58;17.60;99.90
4699;DHT22;33708;49.466;11.176;2023-08-01T01:12:24;17.50;99.90
4699;DHT22;33708;49.466;11.176;2023-08-01T01:14:50;17.40;99.90
4699;DHT22;33708;49.466;11.176;2023-08-01T01:17:15;17.50;99.90
4699;DHT22;33708;49.466;11.176;2023-08-01T01:19:41;17.50;99.90
4699;DHT22;33708;49.466;11.176;2023-08-01T01:22:07;17.50;99.90
4699;DHT22;33708;49.466;11.176;2023-08-01T01:24:35;17.50;99.90
4699;DHT22;33708;49.466;11.176;2023-08-01T01:27:01;17.60;99.90
4699;DHT22;33708;49.466;11.176;2023-08-01T01:29:29;17.50;99.90
4699;DHT22;33708;49.466;11.176;2023-08-01T01:31:56;17.50;99.90
4699;DHT22;33708;49.466;11.176;2023-08-01T01:34:22;17.50;99.90
4699;DHT22;33708;49.466;11.176;2023-08-01T01:36:47;17.50;99.90
4699;DHT22;33708;49.466;11.176;2023-08-01T01:39:13;17.50;99.90
4699;DHT22;33708;49.466;11.176;2023-08-01T01:41:39;17.40;99.90
4699;DHT22;33708;49.466;11.176;2023-08-01T01:44:04;17.40;99.90
4699;DHT22;33708;49.466;11.176;2023-08-01T01:46:30;17.50;99.90
4699;DHT22;33708;49.466;11.176;2023-08-01T01:48:55;17.50;99.90
4699;DHT22;33708;49.466;11.176;2023-08-01T01:51:24;17.50;99.90
4699;DHT22;33708;49.466;11.176;2023-08-01T01:53:49;17.50;99.90
4699;DHT22;33708;49.466;11.176;2023-08-01T01:56:15;17.40;99.90
4699;DHT22;33708;49.466;11.176;2023-08-01T01:58:41;17.40;99.90
4699;DHT22;33708;49.466;11.176;2023-08-01T02:01:06;17.40;99.90
4699;DHT22;33708;49.466;11.176;2023-08-01T02:03:32;17.40;99.90
4699;DHT22;33708;49.466;11.176;2023-08-01T02:05:57;17.30;99.90
4699;DHT22;33708;49.466;11.176;2023-08-01T02:08:23;17.40;99.90
4699;DHT22;33708;49.466;11.176;2023-08-01T02:10:48;17.30;99.90
4699;DHT22;33708;49.466;11.176;2023-08-01T02:13:14;17.30;99.90
4699;DHT22;33708;49.466;11.176;2023-08-01T02:15:40;17.30;99.90
4699;DHT22;33708;49.466;11.176;2023-08-01T02:18:05;17.20;99.90
4699;DHT22;33708;49.466;11.176;2023-08-01T02:20:31;17.10;99.90
4699;DHT22;33708;49.466;11.176;2023-08-01T02:22:57;17.20;99.90
4699;DHT22;33708;49.466;11.176;2023-08-01T02:25:22;17.30;99.90
4699;DHT22;33708;49.466;11.176;2023-08-01T02:27:48;17.20;99.90
4699;DHT22;33708;49.466;11.176;2023-08-01T02:30:13;17.00;99.90
4699;DHT22;33708;49.466;11.176;2023-08-01T02:32:39;16.90;99.90
4699;DHT22;33708;49.466;11.176;2023-08-01T02:35:05;16.90;99.90
4699;DHT22;33708;49.466;11.176;2023-08-01T02:37:30;16.90;99.90
4699;DHT22;33708;49.466;11.176;2023-08-01T02:39:56;16.90;99.90
4699;DHT22;33708;49.466;11.176;2023-08-01T02:42:22;17.10;99.90
4699;DHT22;33708;49.466;11.176;2023-08-01T02:44:47;17.10;99.90
4699;DHT22;33708;49.466;11.176;2023-08-01T02:47:13;17.10;99.90
4699;DHT22;33708;49.466;11.176;2023-08-01T02:49:38;17.10;99.90
4699;DHT22;33708;49.466;11.176;2023-08-01T02:52:04;17.20;99.90
4699;DHT22;33708;49.466;11.176;2023-08-01T02:54:29;17.30;99.90
4699;DHT22;33708;49.466;11.176;2023-08-01T02:56:55;17.20;99.90
4699;DHT22;33708;49.466;11.176;2023-08-01T02:59:20;17.20;99.90
4699;DHT22;33708;49.466;11.176;2023-08-01T03:01:46;17.10;99.90
4699;DHT22;33708;49.466;11.176;2023-08-01T03:04:12;17.10;99.90
4699;DHT22;33708;49.466;11.176;2023-08-01T03:06:39;17.20;99.90
4699;DHT22;33708;49.466;11.176;2023-08-01T03:09:04;17.30;99.90
4699;DHT22;33708;49.466;11.176;2023-08-01T03:11:35;17.30;99.90
4699;DHT22;33708;49.466;11.176;2023-08-01T03:14:00;17.40;99.90
4699;DHT22;33708;49.466;11.176;2023-08-01T03:16:26;17.30;99.90
4699;DHT22;33708;49.466;11.176;2023-08-01T03:18:51;17.30;99.90
4699;DHT22;33708;49.466;11.176;2023-08-01T03:21:17;17.40;99.90
4699;DHT22;33708;49.466;11.176;2023-08-01T03:23:43;17.40;99.90
4699;DHT22;33708;49.466;11.176;2023-08-01T03:26:08;17.30;99.90
4699;DHT22;33708;49.466;11.176;2023-08-01T03:28:34;17.40;99.90
4699;DHT22;33708;49.466;11.176;2023-08-01T03:30:59;17.40;99.90
4699;DHT22;33708;49.466;11.176;2023-08-01T03:33:25;17.40;99.90
4699;DHT22;33708;49.466;11.176;2023-08-01T03:35:51;17.40;99.90
4699;DHT22;33708;49.466;11.176;2023-08-01T03:38:17;17.40;99.90
4699;DHT22;33708;49.466;11.176;2023-08-01T03:40:42;17.40;99.90
4699;DHT22;33708;49.466;11.176;2023-08-01T03:43:08;17.40;99.90
4699;DHT22;33708;49.466;11.176;2023-08-01T03:45:35;17.40;99.90
4699;DHT22;33708;49.466;11.176;2023-08-01T03:48:00;17.30;99.90
4699;DHT22;33708;49.466;11.176;2023-08-01T03:50:26;17.40;99.90
4699;DHT22;33708;49.466;11.176;2023-08-01T03:52:51;17.40;99.90
4699;DHT22;33708;49.466;11.176;2023-08-01T03:55:17;17.30;99.90
4699;DHT22;33708;49.466;11.176;2023-08-01T03:57:43;17.30;99.90
4699;DHT22;33708;49.466;11.176;2023-08-01T04:00:09;17.30;99.90
4699;DHT22;33708;49.466;11.176;2023-08-01T04:02:43;17.20;99.90
4699;DHT22;33708;49.466;11.176;2023-08-01T04:05:10;17.30;99.90
4699;DHT22;33708;49.466;11.176;2023-08-01T04:07:36;17.20;99.90
4699;DHT22;33708;49.466;11.176;2023-08-01T04:10:02;17.20;99.90
4699;DHT22;33708;49.466;11.176;2023-08-01T04:12:29;17.30;99.90
4699;DHT22;33708;49.466;11.176;2023-08-01T04:14:55;17.30;99.90
4699;DHT22;33708;49.466;11.176;2023-08-01T04:17:20;17.00;99.90
4699;DHT22;33708;49.466;11.176;2023-08-01T04:19:46;17.20;99.90
4699;DHT22;33708;49.466;11.176;2023-08-01T04:22:11;17.10;99.90
4699;DHT22;33708;49.466;11.176;2023-08-01T04:24:37;17.20;99.90
4699;DHT22;33708;49.466;11.176;2023-08-01T04:27:03;17.20;99.90
4699;DHT22;33708;49.466;11.176;2023-08-01T04:29:28;17.30;99.90
4699;DHT22;33708;49.466;11.176;2023-08-01T04:31:54;17.30;99.90
4699;DHT22;33708;49.466;11.176;2023-08-01T04:34:20;17.30;99.90
4699;DHT22;33708;49.466;11.176;2023-08-01T04:36:45;17.30;99.90
4699;DHT22;33708;49.466;11.176;2023-08-01T04:39:11;17.30;99.90
4699;DHT22;33708;49.466;11.176;2023-08-01T04:41:36;17.30;99.90
4699;DHT22;33708;49.466;11.176;2023-08-01T04:44:02;17.30;99.90
4699;DHT22;33708;49.466;11.176;2023-08-01T04:46:27;17.30;99.90
4699;DHT22;33708;49.466;11.176;2023-08-01T04:48:53;17.20;99.90
4699;DHT22;33708;49.466;11.176;2023-08-01T04:51:18;17.20;99.90
4699;DHT22;33708;49.466;11.176;2023-08-01T04:53:44;17.10;99.90
4699;DHT22;33708;49.466;11.176;2023-08-01T04:56:10;17.10;99.90
4699;DHT22;33708;49.466;11.176;2023-08-01T04:58:35;17.20;99.90
4699;DHT22;33708;49.466;11.176;2023-08-01T05:01:01;17.20;99.90
4699;DHT22;33708;49.466;11.176;2023-08-01T05:03:26;17.20;99.90
4699;DHT22;33708;49.466;11.176;2023-08-01T05:05:52;17.30;99.90
4699;DHT22;33708;49.466;11.176;2023-08-01T05:08:17;17.40;99.90
4699;DHT22;33708;49.466;11.176;2023-08-01T05:10:43;17.40;99.90
4699;DHT22;33708;49.466;11.176;2023-08-01T05:13:08;17.30;99.90
4699;DHT22;33708;49.466;11.176;2023-08-01T05:15:34;17.30;99.90
4699;DHT22;33708;49.466;11.176;2023-08-01T05:17:59;17.40;99.90
4699;DHT22;33708;49.466;11.176;2023-08-01T05:20:25;17.30;99.90
4699;DHT22;33708;49.466;11.176;2023-08-01T05:22:58;17.40;99.90
4699;DHT22;33708;49.466;11.176;2023-08-01T05:25:24;17.40;99.90
4699;DHT22;33708;49.466;11.176;2023-08-01T05:27:50;17.30;99.90
4699;DHT22;33708;49.466;11.176;2023-08-01T05:30:16;17.30;99.90
4699;DHT22;33708;49.466;11.176;2023-08-01T05:32:41;17.30;99.90
4699;DHT22;33708;49.466;11.176;2023-08-01T05:35:09;17.40;99.90
4699;DHT22;33708;49.466;11.176;2023-08-01T05:37:35;17.50;99.90
4699;DHT22;33708;49.466;11.176;2023-08-01T05:40:04;17.50;99.90
4699;DHT22;33708;49.466;11.176;2023-08-01T05:42:29;17.60;99.90
4699;DHT22;33708;49.466;11.176;2023-08-01T05:44:55;17.60;99.90
4699;DHT22;33708;49.466;11.176;2023-08-01T05:47:21;17.60;99.90
4699;DHT22;33708;49.466;11.176;2023-08-01T05:49:48;17.70;99.90
4699;DHT22;33708;49.466;11.176;2023-08-01T05:52:14;17.80;99.90
4699;DHT22;33708;49.466;11.176;2023-08-01T05:54:39;17.90;99.90
4699;DHT22;33708;49.466;11.176;2023-08-01T05:57:05;18.00;99.90
4699;DHT22;33708;49.466;11.176;2023-08-01T05:59:31;18.00;99.90
4699;DHT22;33708;49.466;11.176;2023-08-01T06:01:57;18.00;99.90
4699;DHT22;33708;49.466;11.176;2023-08-01T06:04:23;18.00;99.90
4699;DHT22;33708;49.466;11.176;2023-08-01T06:06:48;18.10;99.90
4699;DHT22;33708;49.466;11.176;2023-08-01T06:09:14;18.10;99.90
4699;DHT22;33708;49.466;11.176;2023-08-01T06:11:39;18.20;99.90
4699;DHT22;33708;49.466;11.176;2023-08-01T06:14:05;18.20;99.90
4699;DHT22;33708;49.466;11.176;2023-08-01T06:16:31;18.20;99.90
4699;DHT22;33708;49.466;11.176;2023-08-01T06:18:56;18.20;99.90
4699;DHT22;33708;49.466;11.176;2023-08-01T06:21:22;18.30;99.90
4699;DHT22;33708;49.466;11.176;2023-08-01T06:23:48;18.40;99.90
4699;DHT22;33708;49.466;11.176;2023-08-01T06:26:13;18.40;99.90
4699;DHT22;33708;49.466;11.176;2023-08-01T06:28:41;18.50;99.90
4699;DHT22;33708;49.466;11.176;2023-08-01T06:31:06;18.50;99.90
4699;DHT22;33708;49.466;11.176;2023-08-01T06:33:32;18.60;99.90
4699;DHT22;33708;49.466;11.176;2023-08-01T06:35:58;18.80;99.90
4699;DHT22;33708;49.466;11.176;2023-08-01T06:38:23;18.80;99.90
4699;DHT22;33708;49.466;11.176;2023-08-01T06:40:49;18.70;99.90
4699;DHT22;33708;49.466;11.176;2023-08-01T06:43:14;18.80;99.90
4699;DHT22;33708;49.466;11.176;2023-08-01T06:45:40;18.80;99.90
4699;DHT22;33708;49.466;11.176;2023-08-01T06:48:05;18.80;99.90
4699;DHT22;33708;49.466;11.176;2023-08-01T06:50:31;18.70;99.90
4699;DHT22;33708;49.466;11.176;2023-08-01T06:52:57;18.50;99.90
4699;DHT22;33708;49.466;11.176;2023-08-01T06:55:22;18.50;99.90
4699;DHT22;33708;49.466;11.176;2023-08-01T06:57:48;18.60;99.90
4699;DHT22;33708;49.466;11.176;2023-08-01T07:00:14;18.40;99.90
4699;DHT22;33708;49.466;11.176;2023-08-01T07:02:39;18.40;99.90
4699;DHT22;33708;49.466;11.176;2023-08-01T07:05:05;18.30;99.90
4699;DHT22;33708;49.466;11.176;2023-08-01T07:07:31;18.30;99.90
4699;DHT22;33708;49.466;11.176;2023-08-01T07:09:56;18.40;99.90
4699;DHT22;33708;49.466;11.176;2023-08-01T07:12:22;18.60;99.90
4699;DHT22;33708;49.466;11.176;2023-08-01T07:14:47;18.60;99.90
4699;DHT22;33708;49.466;11.176;2023-08-01T07:17:13;18.60;99.90
4699;DHT22;33708;49.466;11.176;2023-08-01T07:19:39;18.70;99.90
4699;DHT22;33708;49.466;11.176;2023-08-01T07:22:04;18.70;99.90
4699;DHT22;33708;49.466;11.176;2023-08-01T07:24:30;18.70;99.90
4699;DHT22;33708;49.466;11.176;2023-08-01T07:26:55;18.70;99.90
4699;DHT22;33708;49.466;11.176;2023-08-01T07:29:21;18.70;99.90
4699;DHT22;33708;49.466;11.176;2023-08-01T07:31:47;18.70;99.90
4699;DHT22;33708;49.466;11.176;2023-08-01T07:34:12;18.90;99.90
4699;DHT22;33708;49.466;11.176;2023-08-01T07:36:38;19.00;99.90
4699;DHT22;33708;49.466;11.176;2023-08-01T07:39:03;19.00;99.90
4699;DHT22;33708;49.466;11.176;2023-08-01T07:41:30;19.10;99.90
4699;DHT22;33708;49.466;11.176;2023-08-01T07:43:55;19.10;99.90
4699;DHT22;33708;49.466;11.176;2023-08-01T07:46:21;19.10;99.90
4699;DHT22;33708;49.466;11.176;2023-08-01T07:48:46;18.90;99.90
4699;DHT22;33708;49.466;11.176;2023-08-01T07:51:12;18.90;99.90
4699;DHT22;33708;49.466;11.176;2023-08-01T07:53:38;18.80;99.90
4699;DHT22;33708;49.466;11.176;2023-08-01T07:56:03;18.90;99.90
4699;DHT22;33708;49.466;11.176;2023-08-01T07:58:32;18.90;99.90
4699;DHT22;33708;49.466;11.176;2023-08-01T08:01:05;18.90;99.90
4699;DHT22;33708;49.466;11.176;2023-08-01T08:03:31;18.80;99.90
4699;DHT22;33708;49.466;11.176;2023-08-01T08:05:57;18.80;99.90
4699;DHT22;33708;49.466;11.176;2023-08-01T08:08:24;18.90;99.90
4699;DHT22;33708;49.466;11.176;2023-08-01T08:10:49;18.80;99.90
4699;DHT22;33708;49.466;11.176;2023-08-01T08:13:15;19.00;99.90
4699;DHT22;33708;49.466;11.176;2023-08-01T08:15:40;18.80;99.90
4699;DHT22;33708;49.466;11.176;2023-08-01T08:18:06;19.10;99.90
4699;DHT22;33708;49.466;11.176;2023-08-01T08:20:40;19.00;99.90
4699;DHT22;33708;49.466;11.176;2023-08-01T08:23:06;19.00;99.90
4699;DHT22;33708;49.466;11.176;2023-08-01T08:25:32;18.90;99.90
4699;DHT22;33708;49.466;11.176;2023-08-01T08:27:57;18.70;99.90
4699;DHT22;33708;49.466;11.176;2023-08-01T08:30:23;18.80;99.90
4699;DHT22;33708;49.466;11.176;2023-08-01T08:32:49;18.70;99.90
4699;DHT22;33708;49.466;11.176;2023-08-01T08:35:15;18.80;99.90
4699;DHT22;33708;49.466;11.176;2023-08-01T08:37:40;18.60;99.90
4699;DHT22;33708;49.466;11.176;2023-08-01T08:40:06;18.60;99.90
4699;DHT22;33708;49.466;11.176;2023-08-01T08:42:33;18.40;99.90
4699;DHT22;33708;49.466;11.176;2023-08-01T08:45:01;18.50;99.90
4699;DHT22;33708;49.466;11.176;2023-08-01T08:47:28;18.40;99.90
4699;DHT22;33708;49.466;11.176;2023-08-01T08:49:56;18.40;99.90
4699;DHT22;33708;49.466;11.176;2023-08-01T08:52:25;18.40;99.90
4699;DHT22;33708;49.466;11.176;2023-08-01T08:54:52;18.30;99.90
4699;DHT22;33708;49.466;11.176;2023-08-01T08:57:19;18.30;99.90
4699;DHT22;33708;49.466;11.176;2023-08-01T08:59:46;18.30;99.90
4699;DHT22;33708;49.466;11.176;2023-08-01T09:02:12;18.10;99.90
4699;DHT22;33708;49.466;11.176;2023-08-01T09:04:40;18.10;99.90
4699;DHT22;33708;49.466;11.176;2023-08-01T09:07:09;17.80;99.90
4699;DHT22;33708;49.466;11.176;2023-08-01T09:09:36;17.80;99.90
4699;DHT22;33708;49.466;11.176;2023-08-01T09:12:02;17.90;99.90
4699;DHT22;33708;49.466;11.176;2023-08-01T09:14:28;18.00;99.90
4699;DHT22;33708;49.466;11.176;2023-08-01T09:16:54;18.00;99.90
4699;DHT22;33708;49.466;11.176;2023-08-01T09:19:24;18.40;99.90
4699;DHT22;33708;49.466;11.176;2023-08-01T09:21:53;18.70;99.90
4699;DHT22;33708;49.466;11.176;2023-08-01T09:24:20;19.10;99.90
4699;DHT22;33708;49.466;11.176;2023-08-01T09:26:47;19.30;99.90
4699;DHT22;33708;49.466;11.176;2023-08-01T09:29:16;19.70;99.90
4699;DHT22;33708;49.466;11.176;2023-08-01T09:31:42;20.10;99.90
4699;DHT22;33708;49.466;11.176;2023-08-01T09:34:22;20.20;99.90
4699;DHT22;33708;49.466;11.176;2023-08-01T09:36:49;20.10;99.90
4699;DHT22;33708;49.466;11.176;2023-08-01T09:39:20;20.00;99.90
4699;DHT22;33708;49.466;11.176;2023-08-01T09:41:54;20.10;99.90
4699;DHT22;33708;49.466;11.176;2023-08-01T09:44:20;20.30;99.90
4699;DHT22;33708;49.466;11.176;2023-08-01T09:47:02;20.40;99.90
4699;DHT22;33708;49.466;11.176;2023-08-01T09:49:29;20.60;99.90
4699;DHT22;33708;49.466;11.176;2023-08-01T09:51:55;20.50;99.90
4699;DHT22;33708;49.466;11.176;2023-08-01T09:54:21;20.60;99.90
4699;DHT22;33708;49.466;11.176;2023-08-01T09:56:49;20.80;99.90
4699;DHT22;33708;49.466;11.176;2023-08-01T09:59:21;20.80;99.90
4699;DHT22;33708;49.466;11.176;2023-08-01T10:01:52;20.80;99.90
4699;DHT22;33708;49.466;11.176;2023-08-01T10:04:40;20.50;99.90
4699;DHT22;33708;49.466;11.176;2023-08-01T10:07:11;20.40;99.90
4699;DHT22;33708;49.466;11.176;2023-08-01T10:09:37;20.40;99.90
4699;DHT22;33708;49.466;11.176;2023-08-01T10:12:05;20.30;99.90
4699;DHT22;33708;49.466;11.176;2023-08-01T10:14:32;20.20;99.90
4699;DHT22;33708;49.466;11.176;2023-08-01T10:16:58;20.30;99.90
4699;DHT22;33708;49.466;11.176;2023-08-01T10:19:24;20.90;99.90
4699;DHT22;33708;49.466;11.176;2023-08-01T10:21:50;21.10;99.90
4699;DHT22;33708;49.466;11.176;2023-08-01T10:24:17;21.10;99.90
4699;DHT22;33708;49.466;11.176;2023-08-01T10:26:46;21.10;99.90
4699;DHT22;33708;49.466;11.176;2023-08-01T10:29:12;21.30;99.90
4699;DHT22;33708;49.466;11.176;2023-08-01T10:31:38;21.50;99.90
4699;DHT22;33708;49.466;11.176;2023-08-01T10:34:11;21.30;99.90
4699;DHT22;33708;49.466;11.176;2023-08-01T10:36:37;21.30;99.90
4699;DHT22;33708;49.466;11.176;2023-08-01T10:39:03;21.30;99.90
4699;DHT22;33708;49.466;11.176;2023-08-01T10:41:33;21.60;99.90
4699;DHT22;33708;49.466;11.176;2023-08-01T10:44:12;21.60;99.90
4699;DHT22;33708;49.466;11.176;2023-08-01T10:46:58;21.80;99.90
4699;DHT22;33708;49.466;11.176;2023-08-01T10:52:27;21.90;99.90
4699;DHT22;33708;49.466;11.176;2023-08-01T10:55:00;21.70;99.90
4699;DHT22;33708;49.466;11.176;2023-08-01T10:57:27;21.70;99.90
4699;DHT22;33708;49.466;11.176;2023-08-01T10:59:55;22.00;99.90
4699;DHT22;33708;49.466;11.176;2023-08-01T11:02:23;22.50;99.90
4699;DHT22;33708;49.466;11.176;2023-08-01T11:05:00;23.20;99.90
4699;DHT22;33708;49.466;11.176;2023-08-01T11:07:27;23.40;99.90
4699;DHT22;33708;49.466;11.176;2023-08-01T11:10:09;23.20;99.90
4699;DHT22;33708;49.466;11.176;2023-08-01T11:12:40;23.20;96.60
4699;DHT22;33708;49.466;11.176;2023-08-01T11:15:08;23.60;97.70
4699;DHT22;33708;49.466;11.176;2023-08-01T11:17:36;23.60;94.50
4699;DHT22;33708;49.466;11.176;2023-08-01T11:20:09;23.40;91.60
4699;DHT22;33708;49.466;11.176;2023-08-01T11:22:36;23.90;91.90
4699;DHT22;33708;49.466;11.176;2023-08-01T11:25:02;24.70;92.60
4699;DHT22;33708;49.466;11.176;2023-08-01T11:27:28;25.30;90.00
4699;DHT22;33708;49.466;11.176;2023-08-01T11:29:54;25.30;73.90
4699;DHT22;33708;49.466;11.176;2023-08-01T11:32:21;24.60;66.70
4699;DHT22;33708;49.466;11.176;2023-08-01T11:34:47;24.60;63.90
4699;DHT22;33708;49.466;11.176;2023-08-01T11:37:14;24.10;58.50
4699;DHT22;33708;49.466;11.176;2023-08-01T11:39:41;23.80;77.00
4699;DHT22;33708;49.466;11.176;2023-08-01T11:42:07;23.40;56.90
4699;DHT22;33708;49.466;11.176;2023-08-01T11:44:32;23.50;55.70
4699;DHT22;33708;49.466;11.176;2023-08-01T11:46:58;23.60;59.70
4699;DHT22;33708;49.466;11.176;2023-08-01T11:49:23;23.60;56.70
4699;DHT22;33708;49.466;11.176;2023-08-01T11:51:49;23.30;53.20
4699;DHT22;33708;49.466;11.176;2023-08-01T11:54:15;23.50;53.90
4699;DHT22;33708;49.466;11.176;2023-08-01T11:56:42;23.20;56.30
4699;DHT22;33708;49.466;11.176;2023-08-01T11:59:15;22.30;51.00
4699;DHT22;33708;49.466;11.176;2023-08-01T12:01:43;21.90;54.90
4699;DHT22;33708;49.466;11.176;2023-08-01T12:04:09;21.80;57.80
4699;DHT22;33708;49.466;11.176;2023-08-01T12:06:35;21.70;58.30
4699;DHT22;33708;49.466;11.176;2023-08-01T12:09:12;21.40;50.40
4699;DHT22;33708;49.466;11.176;2023-08-01T12:11:39;21.50;50.90
4699;DHT22;33708;49.466;11.176;2023-08-01T12:14:23;21.70;40.50
4699;DHT22;33708;49.466;11.176;2023-08-01T12:16:49;22.40;39.10
4699;DHT22;33708;49.466;11.176;2023-08-01T12:19:18;22.70;32.00
4699;DHT22;33708;49.466;11.176;2023-08-01T12:21:45;23.20;20.90
4699;DHT22;33708;49.466;11.176;2023-08-01T12:24:11;23.40;15.10
4699;DHT22;33708;49.466;11.176;2023-08-01T12:26:36;23.80;13.90
4699;DHT22;33708;49.466;11.176;2023-08-01T12:29:02;24.00;7.00
4699;DHT22;33708;49.466;11.176;2023-08-01T12:31:28;24.70;3.00
4699;DHT22;33708;49.466;11.176;2023-08-01T12:33:54;24.70;1.00
4699;DHT22;33708;49.466;11.176;2023-08-01T12:36:20;25.00;1.00
4699;DHT22;33708;49.466;11.176;2023-08-01T12:38:45;24.80;1.00
4699;DHT22;33708;49.466;11.176;2023-08-01T12:41:11;24.40;1.00
4699;DHT22;33708;49.466;11.176;2023-08-01T12:43:36;24.00;1.00
4699;DHT22;33708;49.466;11.176;2023-08-01T12:46:02;24.40;1.00
4699;DHT22;33708;49.466;11.176;2023-08-01T12:48:28;24.30;1.00
4699;DHT22;33708;49.466;11.176;2023-08-01T12:50:54;24.50;1.00
4699;DHT22;33708;49.466;11.176;2023-08-01T12:53:20;24.20;1.00
4699;DHT22;33708;49.466;11.176;2023-08-01T12:55:47;24.10;1.00
4699;DHT22;33708;49.466;11.176;2023-08-01T12:58:13;23.90;1.00
4699;DHT22;33708;49.466;11.176;2023-08-01T13:00:40;24.30;1.00
4699;DHT22;33708;49.466;11.176;2023-08-01T13:03:06;24.00;1.00
4699;DHT22;33708;49.466;11.176;2023-08-01T13:05:35;23.70;1.00
4699;DHT22;33708;49.466;11.176;2023-08-01T13:08:01;23.20;1.00
4699;DHT22;33708;49.466;11.176;2023-08-01T13:10:30;22.60;1.00
4699;DHT22;33708;49.466;11.176;2023-08-01T13:12:57;22.10;1.00
4699;DHT22;33708;49.466;11.176;2023-08-01T13:15:23;21.90;1.00
4699;DHT22;33708;49.466;11.176;2023-08-01T13:17:49;21.80;1.00
4699;DHT22;33708;49.466;11.176;2023-08-01T13:20:15;21.80;1.00
4699;DHT22;33708;49.466;11.176;2023-08-01T13:22:41;21.40;1.00
4699;DHT22;33708;49.466;11.176;2023-08-01T13:25:07;21.30;1.00
4699;DHT22;33708;49.466;11.176;2023-08-01T13:27:36;21.40;1.00
4699;DHT22;33708;49.466;11.176;2023-08-01T13:30:02;21.40;1.00
4699;DHT22;33708;49.466;11.176;2023-08-01T13:32:28;21.40;1.00
4699;DHT22;33708;49.466;11.176;2023-08-01T13:34:53;21.40;1.00
4699;DHT22;33708;49.466;11.176;2023-08-01T13:37:19;21.50;1.00
4699;DHT22;33708;49.466;11.176;2023-08-01T13:39:44;22.10;1.00
4699;DHT22;33708;49.466;11.176;2023-08-01T13:42:14;23.10;1.00
4699;DHT22;33708;49.466;11.176;2023-08-01T13:44:40;24.20;1.00
4699;DHT22;33708;49.466;11.176;2023-08-01T13:47:06;24.40;1.00
4699;DHT22;33708;49.466;11.176;2023-08-01T13:49:31;24.40;1.00
4699;DHT22;33708;49.466;11.176;2023-08-01T13:51:58;23.10;1.00
4699;DHT22;33708;49.466;11.176;2023-08-01T13:54:24;22.80;1.00
4699;DHT22;33708;49.466;11.176;2023-08-01T13:56:50;22.20;1.00
4699;DHT22;33708;49.466;11.176;2023-08-01T13:59:15;22.00;1.00
4699;DHT22;33708;49.466;11.176;2023-08-01T14:01:41;21.90;1.00
4699;DHT22;33708;49.466;11.176;2023-08-01T14:04:06;21.80;1.00
4699;DHT22;33708;49.466;11.176;2023-08-01T14:06:33;21.90;1.00
4699;DHT22;33708;49.466;11.176;2023-08-01T14:08:58;21.40;1.00
4699;DHT22;33708;49.466;11.176;2023-08-01T14:11:24;20.90;1.00
4699;DHT22;33708;49.466;11.176;2023-08-01T14:13:50;20.60;1.00
4699;DHT22;33708;49.466;11.176;2023-08-01T14:16:15;20.00;1.00
4699;DHT22;33708;49.466;11.176;2023-08-01T14:18:42;19.60;1.00
4699;DHT22;33708;49.466;11.176;2023-08-01T14:21:08;19.70;7.80
4699;DHT22;33708;49.466;11.176;2023-08-01T14:23:33;20.00;17.80
4699;DHT22;33708;49.466;11.176;2023-08-01T14:25:59;20.60;20.30
4699;DHT22;33708;49.466;11.176;2023-08-01T14:28:25;21.50;20.70
4699;DHT22;33708;49.466;11.176;2023-08-01T14:30:50;22.10;19.60
4699;DHT22;33708;49.466;11.176;2023-08-01T14:33:16;22.40;17.00
4699;DHT22;33708;49.466;11.176;2023-08-01T14:35:42;22.60;18.80
4699;DHT22;33708;49.466;11.176;2023-08-01T14:38:08;22.60;15.00
4699;DHT22;33708;49.466;11.176;2023-08-01T14:40:34;22.30;14.20
4699;DHT22;33708;49.466;11.176;2023-08-01T14:43:01;21.70;14.30
4699;DHT22;33708;49.466;11.176;2023-08-01T14:45:26;21.30;12.50
4699;DHT22;33708;49.466;11.176;2023-08-01T14:47:52;21.50;17.00
4699;DHT22;33708;49.466;11.176;2023-08-01T14:50:18;21.60;15.70
4699;DHT22;33708;49.466;11.176;2023-08-01T14:52:43;21.70;15.80
4699;DHT22;33708;49.466;11.176;2023-08-01T14:55:09;21.60;14.70
4699;DHT22;33708;49.466;11.176;2023-08-01T14:57:35;21.70;19.40
4699;DHT22;33708;49.466;11.176;2023-08-01T15:00:01;21.60;16.00
4699;DHT22;33708;49.466;11.176;2023-08-01T15:02:27;21.60;14.40
4699;DHT22;33708;49.466;11.176;2023-08-01T15:04:54;21.90;17.80
4699;DHT22;33708;49.466;11.176;2023-08-01T15:07:21;22.20;15.80
4699;DHT22;33708;49.466;11.176;2023-08-01T15:09:47;22.10;8.80
4699;DHT22;33708;49.466;11.176;2023-08-01T15:12:14;22.30;6.80
4699;DHT22;33708;49.466;11.176;2023-08-01T15:14:39;22.10;6.10
4699;DHT22;33708;49.466;11.176;2023-08-01T15:17:05;22.10;5.60
4699;DHT22;33708;49.466;11.176;2023-08-01T15:19:32;21.90;2.30
4699;DHT22;33708;49.466;11.176;2023-08-01T15:21:58;22.20;7.60
4699;DHT22;33708;49.466;11.176;2023-08-01T15:24:24;22.10;5.20
4699;DHT22;33708;49.466;11.176;2023-08-01T15:26:49;21.80;1.00
4699;DHT22;33708;49.466;11.176;2023-08-01T15:29:15;21.90;1.00
4699;DHT22;33708;49.466;11.176;2023-08-01T15:31:41;22.00;2.40